createdAt,value
2022-08-19T00:02:06.027Z,98024.58
2022-08-19T00:04:37.964Z,98023.58
2022-08-19T00:07:08.289Z,98020.66
2022-08-19T00:09:37.281Z,98018.20
2022-08-19T00:12:06.106Z,98014.30
2022-08-19T00:14:34.761Z,98016.04
2022-08-19T00:17:04.623Z,98011.87
2022-08-19T00:19:34.861Z,98006.64
2022-08-19T00:22:03.816Z,98012.30
2022-08-19T00:24:33.391Z,98017.42
2022-08-19T00:27:25.748Z,98026.33
2022-08-19T00:29:52.963Z,98035.43
2022-08-19T00:32:22.460Z,98011.23
2022-08-19T00:34:56.307Z,97992.98
2022-08-19T00:37:27.461Z,97991.23
2022-08-19T00:39:57.163Z,97977.44
2022-08-19T00:42:30.015Z,97981.28
2022-08-19T00:44:59.095Z,97981.19
2022-08-19T00:47:28.112Z,97985.05
2022-08-19T00:49:59.661Z,97996.91
2022-08-19T00:52:34.863Z,97998.70
2022-08-19T00:55:07.870Z,97991.12
2022-08-19T00:57:41.397Z,97987.16
2022-08-19T01:00:16.504Z,97980.91
2022-08-19T01:02:45.493Z,97982.96
2022-08-19T01:05:28.933Z,97981.69
2022-08-19T01:07:59.663Z,97983.13
2022-08-19T01:10:36.702Z,97979.63
2022-08-19T01:13:06.503Z,97977.98
2022-08-19T01:15:42.209Z,97976.38
2022-08-19T01:18:13.988Z,97978.41
2022-08-19T01:20:44.194Z,97973.83
2022-08-19T01:23:14.459Z,97965.23
2022-08-19T01:25:49.031Z,97961.09
2022-08-19T01:28:21.833Z,97960.11
2022-08-19T01:31:07.898Z,97965.11
2022-08-19T01:33:36.839Z,97963.97
2022-08-19T01:36:33.994Z,97963.62
2022-08-19T01:39:07.221Z,97963.05
2022-08-19T01:41:36.652Z,97960.23
2022-08-19T01:44:18.159Z,97966.40
2022-08-19T01:46:50.006Z,97967.86
2022-08-19T01:49:21.457Z,97975.25
2022-08-19T01:51:51.023Z,97976.82
2022-08-19T01:54:23.047Z,97970.77
2022-08-19T01:57:08.477Z,97962.89
2022-08-19T01:59:37.811Z,97965.76
2022-08-19T02:02:09.819Z,97962.08
2022-08-19T02:04:42.208Z,97965.67
2022-08-19T02:07:11.598Z,97963.30
2022-08-19T02:09:40.446Z,97962.10
2022-08-19T02:12:10.197Z,97946.91
2022-08-19T02:14:39.087Z,97934.45
2022-08-19T02:17:08.328Z,97935.85
2022-08-19T02:19:38.999Z,97940.45
2022-08-19T02:22:09.955Z,97939.48
2022-08-19T02:24:40.377Z,97938.90
2022-08-19T02:27:08.971Z,97938.66
2022-08-19T02:29:38.415Z,97939.48
2022-08-19T02:32:07.082Z,97935.82
2022-08-19T02:34:36.467Z,97929.72
2022-08-19T02:37:05.652Z,97936.77
2022-08-19T02:39:34.175Z,97942.00
2022-08-19T02:42:03.692Z,97939.90
2022-08-19T02:44:32.955Z,97941.34
2022-08-19T02:47:01.672Z,97944.27
2022-08-19T02:49:34.722Z,97947.36
2022-08-19T02:52:04.528Z,97943.38
2022-08-19T02:54:33.522Z,97946.49
2022-08-19T02:57:02.074Z,97948.58
2022-08-19T02:59:34.421Z,97952.27
2022-08-19T03:02:03.188Z,97951.87
2022-08-19T03:04:32.101Z,97954.63
2022-08-19T03:07:11.148Z,97958.14
2022-08-19T03:09:40.528Z,97952.53
2022-08-19T03:12:10.748Z,97946.96
2022-08-19T03:14:39.266Z,97951.83
2022-08-19T03:17:09.345Z,97955.72
2022-08-19T03:19:40.505Z,97959.91
2022-08-19T03:22:09.298Z,97952.30
2022-08-19T03:24:38.592Z,97949.21
2022-08-19T03:27:08.405Z,97951.23
2022-08-19T03:29:43.113Z,97960.59
2022-08-19T03:32:32.181Z,97958.56
2022-08-19T03:35:02.454Z,97954.45
2022-08-19T03:37:31.295Z,97948.78
2022-08-19T03:40:00.434Z,97960.86
2022-08-19T03:42:38.780Z,97962.91
2022-08-19T03:45:19.273Z,97965.05
2022-08-19T03:47:48.628Z,97964.34
2022-08-19T03:50:17.591Z,97968.77
2022-08-19T03:52:52.528Z,97977.26
2022-08-19T03:55:21.273Z,97979.81
2022-08-19T03:57:49.915Z,97974.23
2022-08-19T04:00:19.269Z,97972.34
2022-08-19T04:02:58.627Z,97964.33
2022-08-19T04:05:30.739Z,97966.09
2022-08-19T04:08:00.538Z,97965.88
2022-08-19T04:10:29.755Z,97974.61
2022-08-19T04:12:59.005Z,97970.70
2022-08-19T04:15:28.916Z,97963.14
2022-08-19T04:17:57.490Z,97960.04
2022-08-19T04:20:26.588Z,97955.15
2022-08-19T04:22:55.802Z,97957.20
2022-08-19T04:25:24.371Z,97957.30
2022-08-19T04:27:53.149Z,97961.27
2022-08-19T04:30:23.882Z,97959.96
2022-08-19T04:32:52.535Z,97961.98
2022-08-19T04:35:24.792Z,97961.23
2022-08-19T04:37:53.937Z,97964.91
2022-08-19T04:40:41.668Z,97956.82
2022-08-19T04:43:15.891Z,97958.91
2022-08-19T04:45:46.433Z,97953.21
2022-08-19T04:48:26.933Z,97955.95
2022-08-19T04:50:59.232Z,97951.98
2022-08-19T04:53:34.647Z,97953.83
2022-08-19T04:56:11.292Z,97951.13
2022-08-19T04:58:44.874Z,97958.33
2022-08-19T05:01:15.908Z,97964.11
2022-08-19T05:03:45.243Z,97961.02
2022-08-19T05:06:17.115Z,97960.75
2022-08-19T05:08:46.379Z,97954.02
2022-08-19T05:11:19.542Z,97952.29
2022-08-19T05:13:50.595Z,97949.48
2022-08-19T05:16:22.673Z,97958.88
2022-08-19T05:19:10.493Z,97964.45
2022-08-19T05:22:00.272Z,97966.83
2022-08-19T05:24:29.770Z,97973.55
2022-08-19T05:26:59.931Z,97989.52
2022-08-19T05:29:36.229Z,97988.90
2022-08-19T05:32:10.742Z,98001.67
2022-08-19T05:34:40.029Z,98005.15
2022-08-19T05:37:10.070Z,98013.90
2022-08-19T05:39:40.189Z,98030.15
2022-08-19T05:42:10.238Z,98041.80
2022-08-19T05:44:45.177Z,98031.30
2022-08-19T05:47:16.208Z,98037.08
2022-08-19T05:49:44.949Z,98033.59
2022-08-19T05:52:18.960Z,98032.16
2022-08-19T05:54:50.924Z,98036.02
2022-08-19T05:57:21.069Z,98046.63
2022-08-19T05:59:57.916Z,98064.55
2022-08-19T06:02:28.941Z,98075.88
2022-08-19T06:04:58.056Z,98085.94
2022-08-19T06:07:26.729Z,98090.27
2022-08-19T06:10:01.014Z,98096.20
2022-08-19T06:12:35.593Z,98103.13
2022-08-19T06:15:08.947Z,98102.69
2022-08-19T06:17:37.605Z,98104.20
2022-08-19T06:20:13.521Z,98098.67
2022-08-19T06:22:44.541Z,98100.63
2022-08-19T06:25:15.824Z,98104.80
2022-08-19T06:28:11.412Z,98111.56
2022-08-19T06:30:34.743Z,98117.89
2022-08-19T06:33:03.939Z,98121.70
2022-08-19T06:35:32.631Z,98135.92
2022-08-19T06:38:06.605Z,98146.45
2022-08-19T06:40:36.919Z,98154.17
2022-08-19T06:43:09.433Z,98158.13
2022-08-19T06:45:55.095Z,98161.13
2022-08-19T06:48:36.606Z,98160.24
2022-08-19T06:51:12.564Z,98169.77
2022-08-19T06:53:41.236Z,98176.31
2022-08-19T06:56:10.741Z,98178.92
2022-08-19T06:58:39.695Z,98178.17
2022-08-19T07:01:09.857Z,98179.13
2022-08-19T07:03:40.547Z,98176.77
2022-08-19T07:06:32.524Z,98177.64
2022-08-19T07:09:04.640Z,98182.55
2022-08-19T07:11:34.225Z,98184.15
2022-08-19T07:14:04.848Z,98188.30
2022-08-19T07:16:34.037Z,98196.81
2022-08-19T07:19:12.992Z,98190.75
2022-08-19T07:21:44.827Z,98191.05
2022-08-19T07:24:13.729Z,98192.38
2022-08-19T07:26:44.153Z,98189.19
2022-08-19T07:29:13.784Z,98189.97
2022-08-19T07:31:43.419Z,98187.82
2022-08-19T07:34:14.681Z,98186.68
2022-08-19T07:36:44.710Z,98184.73
2022-08-19T07:39:17.944Z,98188.60
2022-08-19T07:41:48.373Z,98187.84
2022-08-19T07:44:18.089Z,98191.23
2022-08-19T07:46:53.158Z,98192.62
2022-08-19T07:49:22.941Z,98192.50
2022-08-19T07:51:53.198Z,98187.83
2022-08-19T07:54:23.375Z,98188.16
2022-08-19T07:56:52.416Z,98193.52
2022-08-19T07:59:23.032Z,98200.70
2022-08-19T08:01:52.491Z,98201.45
2022-08-19T08:04:40.128Z,98207.09
2022-08-19T08:07:31.437Z,98211.95
2022-08-19T08:10:03.349Z,98212.23
2022-08-19T08:12:40.253Z,98209.40
2022-08-19T08:15:13.217Z,98206.02
2022-08-19T08:17:49.357Z,98202.86
2022-08-19T08:20:21.811Z,98195.92
2022-08-19T08:23:08.829Z,98192.98
2022-08-19T08:25:38.752Z,98191.21
2022-08-19T08:28:11.450Z,98187.30
2022-08-19T08:30:49.257Z,98188.64
2022-08-19T08:33:33.159Z,98185.14
2022-08-19T08:36:06.881Z,98175.48
2022-08-19T08:38:40.823Z,98169.27
2022-08-19T08:41:21.337Z,98162.53
2022-08-19T08:43:53.323Z,98151.35
2022-08-19T08:46:47.553Z,98146.10
2022-08-19T08:49:38.652Z,98145.87
2022-08-19T08:52:22.950Z,98152.84
2022-08-19T08:54:59.100Z,98156.61
2022-08-19T08:57:37.696Z,98154.24
2022-08-19T09:00:17.689Z,98154.39
2022-08-19T09:02:50.507Z,98147.34
2022-08-19T09:05:25.825Z,98147.48
2022-08-19T09:08:07.094Z,98148.79
2022-08-19T09:10:44.639Z,98151.04
2022-08-19T09:13:51.484Z,98158.11
2022-08-19T09:16:28.234Z,98163.05
2022-08-19T09:19:03.468Z,98160.02
2022-08-19T09:21:36.082Z,98153.84
2022-08-19T09:24:10.808Z,98157.77
2022-08-19T09:26:48.470Z,98161.88
2022-08-19T09:29:24.453Z,98167.77
2022-08-19T09:31:52.969Z,98166.23
2022-08-19T09:34:22.120Z,98175.00
2022-08-19T09:36:54.937Z,98177.67
2022-08-19T09:39:23.657Z,98181.80
2022-08-19T09:41:54.297Z,98189.33
2022-08-19T09:44:23.123Z,98197.63
2022-08-19T09:46:52.585Z,98197.67
2022-08-19T09:49:24.313Z,98194.90
2022-08-19T09:51:57.709Z,98201.73
2022-08-19T09:58:33.262Z,98199.86
2022-08-19T10:01:03.473Z,98196.80
2022-08-19T10:03:33.787Z,98195.04
2022-08-19T10:06:05.309Z,98190.55
2022-08-19T10:08:50.290Z,98189.88
2022-08-19T10:11:28.162Z,98190.76
2022-08-19T10:14:07.169Z,98189.27
2022-08-19T10:16:39.778Z,98191.87
2022-08-19T10:19:09.158Z,98193.95
2022-08-19T10:21:38.859Z,98194.55
2022-08-19T10:24:10.093Z,98197.87
2022-08-19T10:26:46.563Z,98198.74
2022-08-19T10:29:33.060Z,98197.00
2022-08-19T10:32:09.784Z,98209.11
2022-08-19T10:34:48.069Z,98216.85
2022-08-19T10:37:23.835Z,98224.11
2022-08-19T10:40:03.991Z,98230.67
2022-08-19T10:42:33.226Z,98234.27
2022-08-19T10:45:02.373Z,98239.67
2022-08-19T10:47:36.018Z,98243.27
2022-08-19T10:50:28.800Z,98242.16
2022-08-19T10:53:00.097Z,98237.37
2022-08-19T10:55:48.242Z,98237.54
2022-08-19T10:58:24.057Z,98237.31
2022-08-19T11:00:56.284Z,98238.02
2022-08-19T11:03:26.720Z,98233.30
2022-08-19T11:06:03.051Z,98233.77
2022-08-19T11:08:32.970Z,98231.65
2022-08-19T11:11:04.441Z,98234.92
2022-08-19T11:13:36.920Z,98230.70
2022-08-19T11:16:14.587Z,98230.66
2022-08-19T11:18:49.922Z,98227.39
2022-08-19T11:21:28.829Z,98231.56
2022-08-19T11:24:00.014Z,98228.54
2022-08-19T11:26:30.752Z,98227.72
2022-08-19T11:29:00.424Z,98229.55
2022-08-19T11:31:32.297Z,98226.66
2022-08-19T11:34:04.464Z,98225.11
2022-08-19T11:36:35.340Z,98224.02
2022-08-19T11:39:06.782Z,98221.91
2022-08-19T11:41:36.759Z,98223.86
2022-08-19T11:44:08.998Z,98221.19
2022-08-19T11:46:39.379Z,98222.34
2022-08-19T11:49:14.070Z,98220.56
2022-08-19T11:51:45.946Z,98218.38
2022-08-19T11:54:17.573Z,98219.63
2022-08-19T11:56:51.071Z,98217.51
2022-08-19T11:59:20.124Z,98213.55
2022-08-19T12:01:50.246Z,98218.66
2022-08-19T12:04:19.518Z,98220.19
2022-08-19T12:06:49.494Z,98222.40
2022-08-19T12:09:19.077Z,98222.49
2022-08-19T12:11:49.906Z,98213.86
2022-08-19T12:14:18.995Z,98217.16
2022-08-19T12:16:49.061Z,98214.39
2022-08-19T12:19:22.283Z,98218.70
2022-08-19T12:21:54.536Z,98221.27
2022-08-19T12:24:25.712Z,98218.27
2022-08-19T12:26:56.786Z,98218.40
2022-08-19T12:29:32.156Z,98223.13
2022-08-19T12:32:04.043Z,98220.59
2022-08-19T12:34:34.311Z,98219.80
2022-08-19T12:37:05.966Z,98218.98
2022-08-19T12:39:43.103Z,98215.30
2022-08-19T12:42:14.592Z,98218.27
2022-08-19T12:44:44.936Z,98219.85
2022-08-19T12:47:19.628Z,98215.60
2022-08-19T12:49:54.622Z,98218.86
2022-08-19T12:52:27.208Z,98218.58
2022-08-19T12:54:58.180Z,98218.27
2022-08-19T12:57:37.139Z,98218.38
2022-08-19T13:00:32.783Z,98214.61
2022-08-19T13:03:04.462Z,98210.59
2022-08-19T13:05:35.820Z,98207.05
2022-08-19T13:08:04.999Z,98207.83
2022-08-19T13:10:36.903Z,98200.86
2022-08-19T13:13:08.717Z,98205.50
2022-08-19T13:15:43.472Z,98201.58
2022-08-19T13:18:13.896Z,98201.72
2022-08-19T13:20:43.269Z,98194.51
2022-08-19T13:23:21.803Z,98197.24
2022-08-19T13:26:06.561Z,98196.48
2022-08-19T13:28:55.316Z,98192.01
2022-08-19T13:31:44.579Z,98195.48
2022-08-19T13:34:14.802Z,98192.52
2022-08-19T13:36:44.003Z,98196.23
2022-08-19T13:39:13.757Z,98195.42
2022-08-19T13:41:50.123Z,98193.94
2022-08-19T13:44:19.679Z,98194.30
2022-08-19T13:46:50.000Z,98199.13
2022-08-19T13:49:23.073Z,98205.92
2022-08-19T13:51:51.923Z,98212.92
2022-08-19T13:54:21.764Z,98220.51
2022-08-19T13:56:50.332Z,98220.42
2022-08-19T13:59:19.219Z,98223.27
2022-08-19T14:01:47.701Z,98225.55
2022-08-19T14:04:16.463Z,98227.59
2022-08-19T14:06:45.450Z,98226.61
2022-08-19T14:09:14.040Z,98227.45
2022-08-19T14:11:42.670Z,98232.15
2022-08-19T14:14:16.238Z,98234.27
2022-08-19T14:16:45.179Z,98233.80
2022-08-19T14:19:14.094Z,98230.92
2022-08-19T14:21:42.947Z,98230.42
2022-08-19T14:24:11.595Z,98229.05
2022-08-19T14:26:40.647Z,98224.59
2022-08-19T14:29:09.211Z,98223.79
2022-08-19T14:31:37.814Z,98218.68
2022-08-19T14:34:06.637Z,98220.48
2022-08-19T14:36:39.135Z,98213.23
2022-08-19T14:39:11.059Z,98215.83
2022-08-19T14:41:43.167Z,98219.02
2022-08-19T14:44:16.229Z,98223.76
2022-08-19T14:46:48.567Z,98227.48
2022-08-19T14:49:20.265Z,98222.86
2022-08-19T14:51:49.057Z,98225.70
2022-08-19T14:54:19.114Z,98218.84
2022-08-19T14:56:47.970Z,98218.32
2022-08-19T14:59:17.333Z,98220.35
2022-08-19T15:01:46.290Z,98215.88
2022-08-19T15:04:15.345Z,98218.05
2022-08-19T15:06:44.519Z,98217.19
2022-08-19T15:09:13.172Z,98218.63
2022-08-19T15:11:42.213Z,98217.59
2022-08-19T15:14:11.445Z,98218.95
2022-08-19T15:16:41.892Z,98217.28
2022-08-19T15:19:11.439Z,98221.78
2022-08-19T15:21:40.253Z,98213.69
2022-08-19T15:24:10.443Z,98212.44
2022-08-19T15:26:40.017Z,98209.58
2022-08-19T15:29:09.609Z,98203.99
2022-08-19T15:31:38.919Z,98198.92
2022-08-19T15:34:08.660Z,98201.95
2022-08-19T15:36:38.571Z,98198.73
2022-08-19T15:39:12.031Z,98200.01
2022-08-19T15:41:43.553Z,98203.04
2022-08-19T15:44:19.322Z,98200.80
2022-08-19T15:46:49.459Z,98199.67
2022-08-19T15:49:19.862Z,98195.98
2022-08-19T15:51:52.151Z,98194.14
2022-08-19T15:54:22.291Z,98191.31
2022-08-19T15:57:10.887Z,98192.56
2022-08-19T16:00:01.575Z,98200.35
2022-08-19T16:02:54.357Z,98199.33
2022-08-19T16:05:48.202Z,98204.34
2022-08-19T16:08:18.137Z,98208.85
2022-08-19T16:10:47.303Z,98215.02
2022-08-19T16:13:16.273Z,98207.78
2022-08-19T16:15:45.426Z,98208.14
2022-08-19T16:18:14.231Z,98208.95
2022-08-19T16:20:45.156Z,98208.45
2022-08-19T16:23:14.498Z,98204.37
2022-08-19T16:25:43.855Z,98203.20
2022-08-19T16:28:13.188Z,98201.84
2022-08-19T16:30:48.394Z,98195.05
2022-08-19T16:33:22.860Z,98191.27
2022-08-19T16:36:00.344Z,98195.29
2022-08-19T16:38:38.231Z,98197.85
2022-08-19T16:41:08.300Z,98195.49
2022-08-19T16:43:39.625Z,98191.43
2022-08-19T16:46:09.870Z,98194.34
2022-08-19T16:48:43.966Z,98197.95
2022-08-19T16:51:14.313Z,98204.39
2022-08-19T16:53:45.826Z,98216.23
2022-08-19T16:56:15.878Z,98224.23
2022-08-19T16:58:44.710Z,98223.17
2022-08-19T17:01:14.682Z,98229.39
2022-08-19T17:04:00.013Z,98235.79
2022-08-19T17:06:51.672Z,98238.27
2022-08-19T17:09:44.322Z,98238.61
2022-08-19T17:12:38.020Z,98245.20
2022-08-19T17:15:32.836Z,98254.14
2022-08-19T17:18:31.660Z,98261.55
2022-08-19T17:21:35.046Z,98261.02
2022-08-19T17:24:28.333Z,98250.79
2022-08-19T17:27:26.807Z,98246.52
2022-08-19T17:30:25.166Z,98251.77
2022-08-19T17:33:26.700Z,98260.30
2022-08-19T17:36:13.556Z,98264.70
2022-08-19T17:42:05.206Z,98267.58
2022-08-19T17:44:36.983Z,98276.05
2022-08-19T17:47:06.526Z,98282.75
2022-08-19T17:49:37.785Z,98286.52
2022-08-19T17:52:10.049Z,98290.20
2022-08-19T17:54:40.954Z,98295.11
2022-08-19T17:57:10.993Z,98296.85
2022-08-19T17:59:40.008Z,98295.84
2022-08-19T18:02:10.804Z,98297.55
2022-08-19T18:04:43.396Z,98301.71
2022-08-19T18:07:14.404Z,98294.89
2022-08-19T18:09:49.453Z,98287.24
2022-08-19T18:12:25.098Z,98280.27
2022-08-19T18:14:54.304Z,98272.84
2022-08-19T18:17:23.657Z,98274.18
2022-08-19T18:19:53.256Z,98273.71
2022-08-19T18:22:29.068Z,98263.94
2022-08-19T18:24:59.095Z,98271.61
2022-08-19T18:27:28.084Z,98275.08
2022-08-19T18:30:00.037Z,98286.73
2022-08-19T18:32:34.916Z,98292.11
2022-08-19T18:35:10.308Z,98304.41
2022-08-19T18:37:40.540Z,98311.78
2022-08-19T18:40:32.494Z,98317.95
2022-08-19T18:43:11.613Z,98319.35
2022-08-19T18:46:02.580Z,98317.98
2022-08-19T18:48:50.233Z,98320.71
2022-08-19T18:51:19.556Z,98325.04
2022-08-19T18:53:49.058Z,98332.73
2022-08-19T18:56:21.155Z,98337.86
2022-08-19T18:58:51.202Z,98337.13
2022-08-19T19:01:21.847Z,98340.05
2022-08-19T19:03:55.255Z,98341.88
2022-08-19T19:06:35.130Z,98346.72
2022-08-19T19:09:04.956Z,98347.15
2022-08-19T19:11:38.217Z,98344.27
2022-08-19T19:14:23.016Z,98332.42
2022-08-19T19:17:04.768Z,98339.29
2022-08-19T19:19:34.768Z,98350.39
2022-08-19T19:22:05.416Z,98353.25
2022-08-19T19:24:34.615Z,98358.77
2022-08-19T19:27:07.647Z,98358.08
2022-08-19T19:29:37.624Z,98356.83
2022-08-19T19:32:08.027Z,98351.01
2022-08-19T19:34:40.651Z,98356.36
2022-08-19T19:37:10.144Z,98357.61
2022-08-19T19:39:46.173Z,98358.91
2022-08-19T19:42:20.336Z,98359.23
2022-08-19T19:44:55.223Z,98364.26
2022-08-19T19:47:25.048Z,98379.61
2022-08-19T19:50:14.807Z,98391.63
2022-08-19T19:52:46.854Z,98405.46
2022-08-19T19:55:20.456Z,98402.73
2022-08-19T19:57:50.319Z,98399.77
2022-08-19T20:00:20.737Z,98397.51
2022-08-19T20:02:51.295Z,98394.17
2022-08-19T20:05:21.762Z,98399.86
2022-08-19T20:08:11.480Z,98401.84
2022-08-19T20:10:41.984Z,98404.75
2022-08-19T20:13:15.911Z,98398.95
2022-08-19T20:15:46.250Z,98393.05
2022-08-19T20:18:16.235Z,98396.36
2022-08-19T20:20:51.332Z,98397.10
2022-08-19T20:23:22.960Z,98393.88
2022-08-19T20:25:52.720Z,98395.17
2022-08-19T20:28:24.007Z,98394.40
2022-08-19T20:30:55.285Z,98403.29
2022-08-19T20:33:24.472Z,98406.35
2022-08-19T20:35:53.670Z,98410.58
2022-08-19T20:38:24.689Z,98407.53
2022-08-19T20:40:53.379Z,98402.93
2022-08-19T20:43:23.820Z,98392.31
2022-08-19T20:45:53.412Z,98383.08
2022-08-19T20:48:22.353Z,98368.11
2022-08-19T20:50:51.994Z,98366.06
2022-08-19T20:53:23.463Z,98367.40
2022-08-19T20:55:52.352Z,98377.06
2022-08-19T20:58:24.759Z,98381.86
2022-08-19T21:00:58.592Z,98389.08
2022-08-19T21:03:30.686Z,98396.44
2022-08-19T21:05:59.992Z,98401.58
2022-08-19T21:08:29.101Z,98400.45
2022-08-19T21:10:59.324Z,98403.88
2022-08-19T21:13:28.162Z,98404.19
2022-08-19T21:15:57.732Z,98402.45
2022-08-19T21:18:27.931Z,98396.97
2022-08-19T21:20:56.727Z,98394.78
2022-08-19T21:23:27.880Z,98389.66
2022-08-19T21:25:58.929Z,98390.42
2022-08-19T21:28:35.027Z,98387.68
2022-08-19T21:31:07.427Z,98375.73
2022-08-19T21:33:37.277Z,98374.54
2022-08-19T21:36:06.837Z,98377.46
2022-08-19T21:38:35.797Z,98383.36
2022-08-19T21:41:06.573Z,98385.27
2022-08-19T21:43:38.163Z,98387.27
2022-08-19T21:46:07.856Z,98383.80
2022-08-19T21:48:37.520Z,98366.23
2022-08-19T21:51:06.492Z,98360.98
2022-08-19T21:53:36.059Z,98360.10
2022-08-19T21:56:06.769Z,98361.63
2022-08-19T21:58:39.133Z,98363.73
2022-08-19T22:01:08.376Z,98361.40
2022-08-19T22:03:39.238Z,98357.48
2022-08-19T22:06:08.882Z,98359.48
2022-08-19T22:08:38.163Z,98352.69
2022-08-19T22:11:06.703Z,98342.79
2022-08-19T22:13:40.394Z,98341.79
2022-08-19T22:16:10.738Z,98342.54
2022-08-19T22:18:39.512Z,98338.31
2022-08-19T22:21:11.889Z,98340.55
2022-08-19T22:23:44.933Z,98347.70
2022-08-19T22:26:19.246Z,98347.48
2022-08-19T22:28:48.725Z,98345.45
2022-08-19T22:31:19.161Z,98347.89
2022-08-19T22:33:48.512Z,98346.46
2022-08-19T22:36:18.185Z,98346.89
2022-08-19T22:38:48.278Z,98348.45
2022-08-19T22:41:17.061Z,98351.72
2022-08-19T22:43:47.069Z,98349.89
2022-08-19T22:46:17.615Z,98341.06
2022-08-19T22:48:48.357Z,98332.10
2022-08-19T22:51:49.124Z,98324.70
2022-08-19T22:54:18.628Z,98332.52
2022-08-19T22:56:48.520Z,98336.12
2022-08-19T22:59:17.146Z,98336.27
2022-08-19T23:01:47.115Z,98339.77
2022-08-19T23:04:15.804Z,98340.70
2022-08-19T23:06:47.880Z,98342.64
2022-08-19T23:09:17.359Z,98344.17
2022-08-19T23:11:48.206Z,98347.50
2022-08-19T23:14:19.729Z,98342.91
2022-08-19T23:16:51.371Z,98335.67
2022-08-19T23:19:21.541Z,98333.84
2022-08-19T23:21:52.969Z,98331.88
2022-08-19T23:24:21.777Z,98327.58
2022-08-19T23:27:09.993Z,98321.80
2022-08-19T23:29:58.364Z,98322.23
2022-08-19T23:32:27.474Z,98330.58
2022-08-19T23:34:57.462Z,98338.59
2022-08-19T23:37:29.355Z,98350.08
2022-08-19T23:39:57.996Z,98348.42
2022-08-19T23:42:26.703Z,98348.52
2022-08-19T23:45:05.777Z,98352.98
2022-08-19T23:47:36.012Z,98355.73
2022-08-19T23:50:11.226Z,98350.29
2022-08-19T23:52:47.779Z,98346.88
2022-08-19T23:55:18.585Z,98349.00
2022-08-19T23:57:48.383Z,98350.30
